McKnightstown, Pennsylvania
Current Conditions -  °F | °C
As of 1:24 PM on Wednesday 26 Nov 2014 (Local Time) from KRYT Reporting Station
Light Snow Light Snow  
Wind Chill: 27°   Ceiling: 1600
Heat Index: 34°   Visibility: 1.2mi
Dew Point: 30°   Wind: 8mph
Humidity: 87%   Direction: 50°NE
Pressure: 29.9"   Gusts: NA
Location:  39.87°N, 77.33°W
Report Text: KRYT 261824Z AUTO 05007KT 010V080 1 1/4SM -SN BR FEW008 OVC016 01/M01 A2990 RMK AO2 PRESFR P0003 $
Loading
Personal Weather Stations






























Interactive Weather Map New forecast layout! Learn more

10-Day Weather Forecast

Advertisements
Track Severe Weather on mobile